Time;durP1;ratioP1;P1;durP2;ratioP2;P2;SDS_P1;SDS_P2;PMS_P1;PMS_P2;Temp;Humidity;BMP_temperature;BMP_pressure;BME280_temperature;BME280_humidity;BME280_pressure;Samples;Min_cycle;Max_cycle;Signal;HPM_P1;HPM_P2
2022/06/30 00:01:08;;;;;;;53.03;29.80;;;;;;;-143.10;100.00;50975.44;5043517;28;20123;-68
2022/06/30 00:03:50;;;;;;;50.63;31.25;;;;;;;-143.10;100.00;50975.44;5043792;28;20049;-69
2022/06/30 00:06:39;;;;;;;50.95;31.20;;;;;;;-143.10;100.00;50991.09;5043578;28;20103;-69
2022/06/30 00:09:21;;;;;;;49.55;31.27;;;;;;;-143.10;100.00;50967.59;5042819;28;20073;-69
2022/06/30 00:12:10;;;;;;;51.25;29.83;;;;;;;-143.10;100.00;50973.47;5041228;28;20496;-70
2022/06/30 00:15:11;;;;;;;47.63;31.25;;;;;;;-143.10;100.00;50961.72;5036133;28;20099;-70
2022/06/30 00:18:19;;;;;;;54.30;31.90;;;;;;;-143.10;100.00;50975.44;5029330;28;20503;-69
2022/06/30 00:21:28;;;;;;;50.25;30.52;;;;;;;-143.10;100.00;50993.06;5044138;28;20195;-69
2022/06/30 00:24:37;;;;;;;51.88;31.08;;;;;;;-143.10;100.00;50981.31;5044004;28;20099;-68
2022/06/30 00:27:40;;;;;;;48.57;31.37;;;;;;;-143.10;100.00;51020.47;5045295;28;20493;-69
2022/06/30 00:30:51;;;;;;;51.40;29.90;;;;;;;-143.10;100.00;50942.16;5028928;28;20301;-70
2022/06/30 00:33:53;;;;;;;45.95;28.90;;;;;;;-143.10;100.00;51014.59;5033081;28;20044;-69
2022/06/30 00:37:02;;;;;;;51.75;30.23;;;;;;;-143.10;100.00;50979.34;5040481;28;20049;-69
2022/06/30 00:40:05;;;;;;;49.57;29.53;;;;;;;-143.10;100.00;50963.69;5023261;28;20135;-68
2022/06/30 00:43:21;;;;;;;43.45;27.95;;;;;;;-143.10;100.00;50979.34;5041522;27;20446;-67
2022/06/30 00:46:31;;;;;;;52.80;29.25;;;;;;;-143.10;100.00;50959.78;5008749;28;20413;-67
2022/06/30 00:49:41;;;;;;;44.33;28.52;;;;;;;-143.10;100.00;50963.69;5023670;28;20094;-68
2022/06/30 00:52:45;;;;;;;45.10;27.88;;;;;;;-143.10;100.00;50950.00;5022950;28;20080;-67
2022/06/30 00:55:56;;;;;;;39.40;26.40;;;;;;;-143.10;100.00;51008.72;5007941;28;20438;-68
2022/06/30 00:59:06;;;;;;;46.95;25.90;;;;;;;-143.10;100.00;50979.34;5023849;28;20214;-68
2022/06/30 01:02:16;;;;;;;42.88;24.48;;;;;;;-143.10;100.00;51024.38;5023116;28;20073;-68
2022/06/30 01:05:25;;;;;;;45.58;26.67;;;;;;;-143.10;100.00;50998.94;5022648;28;20533;-68
2022/06/30 01:08:29;;;;;;;36.73;24.33;;;;;;;-143.10;100.00;50987.19;5023958;28;20713;-67
2022/06/30 01:15:07;;;;;;;40.40;25.63;;;;;;;-143.10;100.00;50979.34;5027601;28;20049;-68
2022/06/30 01:18:09;;;;;;;40.00;25.45;;;;;;;-143.10;100.00;51006.75;5026342;28;20527;-68
2022/06/30 01:21:18;;;;;;;42.10;25.48;;;;;;;-143.10;100.00;50973.47;5025690;28;20068;-68
2022/06/30 01:24:21;;;;;;;40.53;24.60;;;;;;;-143.10;100.00;50951.94;5027547;28;20053;-69
2022/06/30 01:27:30;;;;;;;37.50;23.20;;;;;;;-143.10;100.00;51006.75;5026478;28;20148;-68
2022/06/30 01:30:32;;;;;;;35.45;23.83;;;;;;;-143.10;100.00;51008.72;5026000;28;20049;-69
2022/06/30 01:33:41;;;;;;;38.35;24.55;;;;;;;-143.10;100.00;50975.44;5013345;28;20045;-69
2022/06/30 01:36:50;;;;;;;38.28;22.75;;;;;;;-143.10;100.00;51010.69;5026871;28;20574;-69
2022/06/30 01:39:52;;;;;;;41.78;22.75;;;;;;;-143.10;100.00;50991.09;5026577;28;20124;-69
2022/06/30 01:43:13;;;;;;;38.35;22.67;;;;;;;-143.10;100.00;51000.91;5019072;28;20135;-68
2022/06/30 01:46:22;;;;;;;36.10;21.98;;;;;;;-143.10;100.00;51018.50;5043624;28;20072;-68
2022/06/30 01:49:24;;;;;;;43.95;23.75;;;;;;;-143.10;100.00;50995.03;5027064;28;20175;-68
2022/06/30 01:52:33;;;;;;;42.25;23.85;;;;;;;-143.10;100.00;51022.44;5025819;28;20131;-69
2022/06/30 01:55:42;;;;;;;41.80;23.48;;;;;;;-143.10;100.00;51002.84;5027039;28;20077;-68
2022/06/30 01:58:44;;;;;;;37.28;22.55;;;;;;;-143.10;100.00;51004.81;5027364;28;20136;-68
2022/06/30 02:01:53;;;;;;;35.55;21.73;;;;;;;-143.10;100.00;51018.50;5026898;28;20045;-69
2022/06/30 02:05:03;;;;;;;43.20;25.17;;;;;;;-143.10;100.00;50987.19;5025941;28;20061;-69
2022/06/30 02:08:21;;;;;;;46.13;23.27;;;;;;;-143.10;100.00;51012.63;5017077;28;20111;-68
2022/06/30 02:11:27;;;;;;;51.60;23.50;;;;;;;-143.10;100.00;51020.47;5002686;28;20049;-70
2022/06/30 02:14:36;;;;;;;37.10;23.83;;;;;;;-143.10;100.00;50983.28;5014200;28;20115;-68
2022/06/30 02:17:47;;;;;;;37.05;23.35;;;;;;;-143.10;100.00;50979.34;5025606;28;20077;-69
2022/06/30 02:20:50;;;;;;;38.35;23.83;;;;;;;-143.10;100.00;51045.91;5026764;28;20049;-70
2022/06/30 02:23:59;;;;;;;39.35;23.30;;;;;;;-143.10;100.00;50995.03;5025350;28;20493;-69
2022/06/30 02:27:01;;;;;;;36.53;23.00;;;;;;;-143.10;100.00;50989.16;5012087;28;20222;-68
2022/06/30 02:30:11;;;;;;;39.83;22.80;;;;;;;-143.10;100.00;51016.56;5027599;28;20432;-68
2022/06/30 02:33:15;;;;;;;37.33;22.67;;;;;;;-143.10;100.00;51045.91;5037693;28;20048;-69
2022/06/30 02:36:24;;;;;;;41.53;25.10;;;;;;;-143.10;100.00;51024.38;5043970;28;20805;-70
2022/06/30 02:39:26;;;;;;;40.55;22.52;;;;;;;-143.10;100.00;51024.38;5030850;28;20044;-68
2022/06/30 02:42:35;;;;;;;45.67;24.52;;;;;;;-143.10;100.00;51006.75;5035964;28;20045;-68
2022/06/30 02:45:37;;;;;;;41.03;24.08;;;;;;;-143.10;100.00;51012.63;5027330;28;20057;-68
2022/06/30 02:48:46;;;;;;;36.40;23.55;;;;;;;-143.10;100.00;50996.97;5014918;28;20064;-67
2022/06/30 02:51:56;;;;;;;42.40;24.60;;;;;;;-143.10;100.00;50983.28;5015963;28;20406;-67
2022/06/30 02:54:59;;;;;;;46.55;25.88;;;;;;;-143.10;100.00;51010.69;4994289;28;20070;-68
2022/06/30 02:58:08;;;;;;;42.72;25.40;;;;;;;-143.10;100.00;50991.09;5006559;28;20049;-68
2022/06/30 03:01:10;;;;;;;44.25;24.65;;;;;;;-143.10;100.00;51006.75;5005979;28;20090;-68
2022/06/30 03:04:21;;;;;;;40.17;26.23;;;;;;;-143.10;100.00;50998.94;5004882;28;20088;-68
2022/06/30 03:07:24;;;;;;;45.35;26.23;;;;;;;-143.10;100.00;50991.09;5006829;28;20053;-68
2022/06/30 03:10:33;;;;;;;45.65;25.30;;;;;;;-143.10;100.00;51024.38;4991882;28;20156;-68
2022/06/30 03:13:35;;;;;;;40.20;24.60;;;;;;;-143.10;100.00;51002.84;5005870;28;20512;-69
2022/06/30 03:16:44;;;;;;;41.78;27.08;;;;;;;-143.10;100.00;51032.22;5004849;28;20050;-68
2022/06/30 03:19:53;;;;;;;47.60;25.38;;;;;;;-143.10;100.00;51014.59;5008405;28;20157;-68
2022/06/30 03:23:02;;;;;;;44.13;26.10;;;;;;;-143.10;100.00;51034.19;5023001;28;20046;-69
2022/06/30 03:26:11;;;;;;;41.80;26.70;;;;;;;-143.10;100.00;50989.16;5016513;28;20105;-69
2022/06/30 03:29:20;;;;;;;45.50;26.77;;;;;;;-143.10;100.00;51018.50;5014200;28;20042;-69
2022/06/30 03:32:22;;;;;;;44.58;26.60;;;;;;;-143.10;100.00;51020.47;5002797;28;20169;-68
2022/06/30 03:35:31;;;;;;;46.85;27.13;;;;;;;-143.10;100.00;51024.38;5004134;28;20133;-68
2022/06/30 03:38:40;;;;;;;44.08;28.13;;;;;;;-143.10;100.00;50998.94;5005434;28;20081;-68
2022/06/30 03:41:49;;;;;;;44.58;26.15;;;;;;;-143.10;100.00;51038.09;5005558;28;20522;-67
2022/06/30 03:45:04;;;;;;;45.90;27.65;;;;;;;-143.10;100.00;50993.06;5022659;28;20064;-67
2022/06/30 03:48:13;;;;;;;42.78;25.63;;;;;;;-143.10;100.00;51020.47;5041762;28;20049;-68
2022/06/30 03:51:15;;;;;;;45.92;26.63;;;;;;;-143.10;100.00;51010.69;5041618;28;20056;-67
2022/06/30 03:54:39;;;;;;;43.53;29.58;;;;;;;-143.10;100.00;51032.22;5042325;28;20037;-68
2022/06/30 03:57:48;;;;;;;49.35;29.17;;;;;;;-143.10;100.00;51014.59;5041891;28;20044;-68
2022/06/30 04:00:57;;;;;;;43.95;27.38;;;;;;;-143.10;100.00;50985.22;5042839;28;20056;-67
2022/06/30 04:03:59;;;;;;;45.78;25.95;;;;;;;-143.10;100.00;51022.44;5041380;28;20045;-71
2022/06/30 04:07:08;;;;;;;47.13;28.30;;;;;;;-143.10;100.00;51002.84;5043015;28;20163;-69
2022/06/30 04:10:11;;;;;;;50.13;29.70;;;;;;;-143.10;100.00;51010.69;5044774;28;20147;-67
2022/06/30 04:13:20;;;;;;;50.13;28.40;;;;;;;-143.10;100.00;51026.34;5043968;28;20081;-67
2022/06/30 04:16:29;;;;;;;52.50;28.15;;;;;;;-143.10;100.00;51004.81;5042190;28;20143;-68
2022/06/30 04:19:31;;;;;;;43.83;28.80;;;;;;;-143.10;100.00;51014.59;5044180;28;20068;-67
2022/06/30 04:22:40;;;;;;;44.17;27.17;;;;;;;-143.10;100.00;51018.50;5044454;28;20055;-68
2022/06/30 04:25:49;;;;;;;55.08;30.15;;;;;;;-143.10;100.00;51020.47;5043463;28;20045;-68
2022/06/30 04:28:51;;;;;;;51.95;29.55;;;;;;;-143.10;100.00;51022.44;5043936;28;20114;-68
2022/06/30 04:35:21;;;;;;;47.80;28.85;;;;;;;-143.10;100.00;51038.09;5042805;28;20052;-68
2022/06/30 04:38:30;;;;;;;53.75;29.42;;;;;;;-143.10;100.00;51002.84;5034763;28;20124;-68
2022/06/30 04:41:32;;;;;;;53.03;29.35;;;;;;;-143.10;100.00;51016.56;5043391;28;20049;-68
2022/06/30 04:44:47;;;;;;;55.33;28.05;;;;;;;-143.10;100.00;50995.03;5044203;27;20129;-68
2022/06/30 04:48:02;;;;;;;49.55;27.10;;;;;;;-143.10;100.00;50996.97;5032263;28;20088;-69
2022/06/30 04:51:11;;;;;;;49.83;28.70;;;;;;;-143.10;100.00;51016.56;5050214;28;20484;-68
2022/06/30 04:54:20;;;;;;;46.38;28.05;;;;;;;-143.10;100.00;51006.75;5031165;28;20049;-68
2022/06/30 04:57:30;;;;;;;52.88;30.20;;;;;;;-143.10;100.00;51016.56;5019189;28;20188;-69
2022/06/30 05:00:26;;;;;;;45.42;28.23;;;;;;;-143.10;100.00;51006.75;5014017;28;20061;-69
2022/06/30 05:03:36;;;;;;;57.20;31.20;;;;;;;-143.10;100.00;50979.34;5025131;28;20101;-69
2022/06/30 05:06:45;;;;;;;43.67;28.40;;;;;;;-143.10;100.00;51030.25;5028011;28;20291;-67
2022/06/30 05:09:54;;;;;;;44.83;28.83;;;;;;;-143.10;100.00;51018.50;5025365;28;20077;-69
2022/06/30 05:12:56;;;;;;;51.55;31.77;;;;;;;-143.10;100.00;51028.31;5026972;28;20064;-69
2022/06/30 05:16:05;;;;;;;52.15;31.65;;;;;;;-143.10;100.00;51004.81;5025736;28;20162;-65
2022/06/30 05:19:09;;;;;;;53.40;31.27;;;;;;;-143.10;100.00;51045.91;5026550;28;20640;-72
2022/06/30 05:22:18;;;;;;;51.45;31.63;;;;;;;-143.10;100.00;51030.25;5026328;28;20049;-72
2022/06/30 05:28:48;;;;;;;54.22;32.00;;;;;;;-143.10;100.00;51002.84;5046075;28;20057;-73
2022/06/30 05:31:54;;;;;;;57.47;33.33;;;;;;;-143.10;100.00;51014.59;5046358;28;20049;-73
2022/06/30 05:35:03;;;;;;;71.60;33.53;;;;;;;-143.10;100.00;51014.59;5045862;28;20511;-73
2022/06/30 05:38:05;;;;;;;53.40;33.28;;;;;;;-143.10;100.00;51034.19;5047124;28;20045;-73
2022/06/30 05:41:14;;;;;;;56.55;30.80;;;;;;;-143.10;100.00;51034.19;5046896;28;20064;-74
2022/06/30 05:44:18;;;;;;;69.63;32.47;;;;;;;-143.10;100.00;51004.81;5046999;28;20150;-75
2022/06/30 05:47:34;;;;;;;57.90;33.58;;;;;;;-143.10;100.00;51006.75;5014242;28;20098;-73
2022/06/30 05:50:43;;;;;;;58.30;32.47;;;;;;;-143.10;100.00;51014.59;5024408;28;20060;-74
2022/06/30 05:53:52;;;;;;;61.70;33.25;;;;;;;-143.10;100.00;51006.75;5042838;28;20121;-72
2022/06/30 05:56:54;;;;;;;55.58;30.40;;;;;;;-143.10;100.00;51024.38;5042570;28;20051;-75
2022/06/30 06:00:03;;;;;;;59.55;32.83;;;;;;;-143.10;100.00;51002.84;5039570;28;20158;-71
2022/06/30 06:03:05;;;;;;;54.05;30.38;;;;;;;-143.10;100.00;51040.03;5043436;28;20172;-75
2022/06/30 06:06:14;;;;;;;64.30;32.50;;;;;;;-143.10;100.00;51018.50;5022558;28;20045;-75
2022/06/30 06:09:16;;;;;;;52.45;32.22;;;;;;;-143.10;100.00;51006.75;5030837;28;20115;-72
2022/06/30 06:12:25;;;;;;;57.08;32.10;;;;;;;-143.10;100.00;50998.94;5025408;28;20718;-75
2022/06/30 06:15:27;;;;;;;57.42;31.95;;;;;;;-143.10;100.00;51040.03;5025381;28;20045;-69
2022/06/30 06:18:36;;;;;;;50.83;31.42;;;;;;;-143.10;100.00;50983.28;5024259;28;20049;-69
2022/06/30 06:21:45;;;;;;;54.42;30.55;;;;;;;-143.10;100.00;51024.38;5025028;28;20045;-70
2022/06/30 06:24:47;;;;;;;53.83;30.63;;;;;;;-143.10;100.00;51004.81;5018663;28;20041;-68
2022/06/30 06:31:23;;;;;;;53.17;30.55;;;;;;;-143.10;100.00;50983.28;5025314;28;20057;-70
2022/06/30 06:34:32;;;;;;;62.50;30.75;;;;;;;-143.10;100.00;51018.50;5013197;28;20049;-69
2022/06/30 06:37:35;;;;;;;55.97;29.85;;;;;;;-143.10;100.00;51034.19;5026812;28;20552;-71
2022/06/30 06:40:44;;;;;;;62.00;30.73;;;;;;;-143.10;100.00;51024.38;5043878;28;20508;-71
2022/06/30 06:43:46;;;;;;;61.90;30.80;;;;;;;-143.10;100.00;51006.75;5043258;28;20045;-69
2022/06/30 06:46:56;;;;;;;58.15;30.83;;;;;;;-143.10;100.00;51010.69;5041866;28;20595;-70
2022/06/30 06:50:09;;;;;;;60.35;31.73;;;;;;;-143.10;100.00;51016.56;5043832;28;20066;-69
2022/06/30 06:53:12;;;;;;;59.03;30.63;;;;;;;-143.10;100.00;51026.34;5044316;28;20052;-70
2022/06/30 06:56:21;;;;;;;57.65;31.13;;;;;;;-143.10;100.00;51026.34;5042969;28;20439;-70
2022/06/30 06:59:31;;;;;;;54.40;30.95;;;;;;;-143.10;100.00;51053.75;5040976;28;20546;-70
2022/06/30 07:02:56;;;;;;;54.40;30.42;;;;;;;-143.10;100.00;51043.97;5041289;28;20049;-68
2022/06/30 07:06:05;;;;;;;58.03;30.65;;;;;;;-143.10;100.00;51030.25;5038738;28;20086;-70
2022/06/30 07:09:14;;;;;;;64.05;31.20;;;;;;;-143.10;100.00;51002.84;5034018;28;20421;-71
2022/06/30 07:12:23;;;;;;;55.95;29.63;;;;;;;-143.10;100.00;51026.34;5027629;28;20077;-70
2022/06/30 07:15:29;;;;;;;67.10;31.73;;;;;;;-143.10;100.00;51006.75;5032719;28;20152;-70
2022/06/30 07:18:38;;;;;;;51.13;30.23;;;;;;;-143.10;100.00;50991.09;5033876;28;20044;-68
2022/06/30 07:21:41;;;;;;;55.28;30.75;;;;;;;-143.10;100.00;51024.38;5033430;28;20266;-70
2022/06/30 07:24:50;;;;;;;57.85;30.55;;;;;;;-143.10;100.00;51016.56;5028605;28;20129;-68
2022/06/30 07:27:52;;;;;;;54.83;31.02;;;;;;;-143.10;100.00;51010.69;5034913;28;20049;-68
2022/06/30 07:31:01;;;;;;;61.30;34.60;;;;;;;-143.10;100.00;51006.75;5033579;28;20452;-69
2022/06/30 07:34:03;;;;;;;68.15;32.78;;;;;;;-143.10;100.00;51034.19;5032037;28;20780;-69
2022/06/30 07:37:13;;;;;;;72.20;34.13;;;;;;;-143.10;100.00;51030.25;5032365;28;20045;-69
2022/06/30 07:40:22;;;;;;;70.97;35.53;;;;;;;-143.10;100.00;51030.25;5045390;28;20570;-66
2022/06/30 07:43:24;;;;;;;65.32;33.33;;;;;;;-143.10;100.00;51018.50;5049957;28;20053;-68
2022/06/30 07:46:34;;;;;;;69.65;36.85;;;;;;;-143.10;100.00;51008.72;5029364;28;20115;-68
2022/06/30 07:49:42;;;;;;;66.43;36.40;;;;;;;-143.10;100.00;51026.34;5016620;28;20049;-68
2022/06/30 07:52:52;;;;;;;65.10;37.67;;;;;;;-143.10;100.00;51034.19;5042426;28;20174;-68
2022/06/30 07:56:01;;;;;;;61.03;36.50;;;;;;;-143.10;100.00;51028.31;5044314;28;20508;-68
2022/06/30 07:59:03;;;;;;;57.95;35.25;;;;;;;-143.10;100.00;51014.59;5041443;28;20060;-68
2022/06/30 08:02:13;;;;;;;60.17;35.72;;;;;;;-143.10;100.00;51002.84;5043518;28;20075;-68
2022/06/30 08:05:15;;;;;;;71.03;37.35;;;;;;;-143.10;100.00;51002.84;5040845;28;20694;-68
2022/06/30 08:08:25;;;;;;;72.32;36.78;;;;;;;-143.10;100.00;50995.03;5028511;28;20396;-68
2022/06/30 08:11:28;;;;;;;63.38;35.28;;;;;;;-143.10;100.00;51008.72;5041647;28;20060;-68
2022/06/30 08:14:37;;;;;;;68.88;37.42;;;;;;;-143.10;100.00;51010.69;5040591;28;20049;-68
2022/06/30 08:17:39;;;;;;;62.08;35.22;;;;;;;-143.10;100.00;51004.81;5039082;28;20041;-68
2022/06/30 08:20:48;;;;;;;69.13;38.33;;;;;;;-143.10;100.00;51014.59;5044258;28;20158;-67
2022/06/30 08:23:51;;;;;;;70.43;35.85;;;;;;;-143.10;100.00;50998.94;5036771;28;20054;-67
2022/06/30 08:27:02;;;;;;;68.65;36.33;;;;;;;-143.10;100.00;51020.47;5028929;28;20142;-67
2022/06/30 08:30:04;;;;;;;67.72;36.00;;;;;;;-143.10;100.00;51006.75;5065167;28;20242;-68
2022/06/30 08:33:13;;;;;;;65.38;36.42;;;;;;;-143.10;100.00;51045.91;5065345;28;20091;-69
2022/06/30 08:36:15;;;;;;;65.57;36.35;;;;;;;-143.10;100.00;51024.38;5065282;28;20158;-67
2022/06/30 08:42:47;;;;;;;66.75;36.15;;;;;;;-143.10;100.00;50987.19;5027767;28;20045;-69
2022/06/30 08:45:58;;;;;;;69.03;34.38;;;;;;;-143.10;100.00;51022.44;5060113;28;20049;-68
2022/06/30 08:49:00;;;;;;;72.82;33.80;;;;;;;-143.10;100.00;51042.00;5041116;28;20061;-70
2022/06/30 08:52:11;;;;;;;77.80;36.22;;;;;;;-143.10;100.00;50995.03;5042040;28;20139;-68
2022/06/30 08:55:31;;;;;;;67.03;34.55;;;;;;;-143.10;100.00;51028.31;5034264;28;20138;-69
2022/06/30 08:58:33;;;;;;;73.15;34.58;;;;;;;-143.10;100.00;51028.31;5043915;28;20049;-69
2022/06/30 09:01:42;;;;;;;64.63;33.67;;;;;;;-143.10;100.00;51014.59;5034631;28;20053;-68
2022/06/30 09:04:51;;;;;;;68.47;34.35;;;;;;;-143.10;100.00;51022.44;5045028;28;20072;-67
2022/06/30 09:08:00;;;;;;;68.60;34.90;;;;;;;-143.10;100.00;51016.56;5043773;28;20053;-68
2022/06/30 09:11:23;;;;;;;56.00;34.25;;;;;;;-143.10;100.00;51026.34;5030069;28;20404;-69
2022/06/30 09:14:48;;;;;;;64.10;34.55;;;;;;;-143.10;100.00;51012.63;5032735;28;20053;-69
2022/06/30 09:17:54;;;;;;;60.50;33.03;;;;;;;-143.10;100.00;51026.34;5032605;28;20055;-69
2022/06/30 09:21:29;;;;;;;58.90;30.33;;;;;;;-143.10;100.00;51026.34;5030394;28;20526;-70
2022/06/30 09:24:31;;;;;;;63.28;29.33;;;;;;;-143.10;100.00;51045.91;5024972;28;20049;-68
2022/06/30 09:27:42;;;;;;;48.13;26.73;;;;;;;-143.10;100.00;51002.84;5028642;28;20060;-69
2022/06/30 09:30:44;;;;;;;55.50;27.65;;;;;;;-143.10;100.00;51034.19;5022518;28;20057;-68
2022/06/30 09:33:54;;;;;;;43.90;25.92;;;;;;;-143.10;100.00;51053.75;5035344;28;20076;-69
2022/06/30 09:37:03;;;;;;;40.80;24.48;;;;;;;-143.10;100.00;51030.25;5044447;28;20441;-71
2022/06/30 09:40:07;;;;;;;47.92;22.40;;;;;;;-143.10;100.00;51030.25;5045883;28;20051;-70
2022/06/30 09:43:16;;;;;;;42.20;22.90;;;;;;;-143.10;100.00;51038.09;5025715;28;20057;-71
2022/06/30 09:46:25;;;;;;;42.72;19.98;;;;;;;-143.10;100.00;51036.13;5024243;28;20057;-69
2022/06/30 09:49:40;;;;;;;38.77;19.67;;;;;;;-143.10;100.00;51059.63;5024203;28;20545;-70
2022/06/30 09:53:11;;;;;;;35.22;18.10;;;;;;;-143.10;100.00;51008.72;5026477;28;20291;-71
2022/06/30 09:56:14;;;;;;;40.75;20.17;;;;;;;-143.10;100.00;51026.34;5034066;28;20049;-70
2022/06/30 09:59:26;;;;;;;39.08;17.38;;;;;;;-143.10;100.00;51018.50;5042986;28;20608;-70
2022/06/30 10:02:47;;;;;;;36.55;16.98;;;;;;;-143.10;99.58;51016.56;5045319;28;20080;-69
2022/06/30 10:06:16;;;;;;;32.42;15.88;;;;;;;-143.10;99.96;51036.13;5040548;28;20184;-71
2022/06/30 10:09:22;;;;;;;27.35;16.20;;;;;;;-143.10;100.00;51028.31;5028051;28;20536;-71
2022/06/30 10:12:32;;;;;;;31.23;14.43;;;;;;;-143.10;99.42;51038.09;5026537;28;20065;-71
2022/06/30 10:15:37;;;;;;;40.03;14.83;;;;;;;-143.10;99.84;51026.34;5025439;28;20041;-71
2022/06/30 10:18:47;;;;;;;22.92;13.43;;;;;;;-143.10;99.10;51012.63;5024856;28;20466;-70
2022/06/30 10:21:50;;;;;;;30.45;12.45;;;;;;;-143.10;99.71;51081.16;5025356;28;20513;-71
2022/06/30 10:24:59;;;;;;;26.83;11.55;;;;;;;-143.10;99.71;51018.50;5024970;28;20144;-71
2022/06/30 10:28:09;;;;;;;25.25;11.65;;;;;;;-143.10;99.41;51040.03;5024923;28;20041;-70
2022/06/30 10:31:38;;;;;;;25.97;13.13;;;;;;;-143.10;98.81;51010.69;5027709;28;20080;-72
2022/06/30 10:34:55;;;;;;;27.88;12.30;;;;;;;-143.10;98.14;51030.25;5013989;28;20077;-70
2022/06/30 10:38:06;;;;;;;16.92;9.80;;;;;;;-143.10;99.22;51038.09;5035070;28;20045;-70
2022/06/30 10:41:20;;;;;;;28.55;9.40;;;;;;;-143.10;98.29;51020.47;5035166;28;20045;-70
2022/06/30 10:44:27;;;;;;;14.95;8.90;;;;;;;-143.10;98.68;51030.25;5044813;28;20037;-71
2022/06/30 10:47:37;;;;;;;23.80;10.10;;;;;;;-143.10;98.01;51016.56;5045594;28;20460;-71
2022/06/30 10:50:54;;;;;;;20.90;9.15;;;;;;;-143.10;98.55;51038.09;5043829;28;20068;-72
2022/06/30 10:54:03;;;;;;;16.35;8.55;;;;;;;-143.10;98.46;51030.25;5025976;28;20110;-70
2022/06/30 10:57:18;;;;;;;19.20;7.00;;;;;;;-143.10;98.18;51047.88;5027549;28;20340;-71
2022/06/30 11:01:10;;;;;;;17.92;6.32;;;;;;;-143.10;99.31;51034.19;5024693;28;20072;-71
2022/06/30 11:04:17;;;;;;;13.20;5.55;;;;;;;-143.10;97.82;51002.84;5004695;28;20069;-72
2022/06/30 11:07:26;;;;;;;14.75;5.53;;;;;;;-143.10;97.95;51030.25;5002176;28;20127;-71
2022/06/30 11:10:35;;;;;;;13.65;5.78;;;;;;;-143.10;99.22;51026.34;5006076;28;20171;-70
2022/06/30 11:13:37;;;;;;;15.27;6.78;;;;;;;-143.10;97.61;51024.38;5022606;28;20056;-71
2022/06/30 11:16:48;;;;;;;16.17;6.18;;;;;;;-143.10;98.18;51053.75;5024700;28;20041;-70
2022/06/30 11:20:01;;;;;;;20.80;6.45;;;;;;;-143.10;98.86;51063.53;5022858;28;20566;-69
2022/06/30 11:23:11;;;;;;;23.20;5.97;;;;;;;-143.10;99.35;51077.25;5021909;28;20147;-71
2022/06/30 11:29:46;;;;;;;18.67;5.82;;;;;;;-143.10;99.29;51034.19;5019214;28;20116;-73
2022/06/30 11:32:55;;;;;;;13.55;4.40;;;;;;;-143.10;99.56;51038.09;5022158;28;20127;-71
2022/06/30 11:36:10;;;;;;;9.95;4.38;;;;;;;-143.10;99.88;51045.91;5017649;28;20124;-70
2022/06/30 11:39:20;;;;;;;13.10;5.05;;;;;;;-143.10;100.00;51053.75;5023129;28;20087;-70
2022/06/30 11:42:30;;;;;;;16.52;5.35;;;;;;;-143.10;100.00;51059.63;5013187;28;20393;-69
2022/06/30 11:45:32;;;;;;;21.17;7.72;;;;;;;-143.10;100.00;51059.63;5023389;28;20056;-70
2022/06/30 11:48:48;;;;;;;16.73;5.70;;;;;;;-143.10;100.00;51069.41;5024677;28;20049;-70
2022/06/30 11:52:03;;;;;;;20.88;5.72;;;;;;;-143.10;100.00;51038.09;5031041;28;20218;-69
2022/06/30 11:55:19;;;;;;;19.75;6.70;;;;;;;-143.10;100.00;51051.78;5012517;28;20048;-71
2022/06/30 11:58:29;;;;;;;22.30;6.57;;;;;;;-143.10;100.00;51032.22;5023623;28;20057;-71
2022/06/30 12:01:38;;;;;;;11.63;5.53;;;;;;;-143.10;100.00;51045.91;5003297;28;20048;-72
2022/06/30 12:04:41;;;;;;;20.42;5.07;;;;;;;-143.10;100.00;51057.66;5004561;28;20078;-69
2022/06/30 12:07:52;;;;;;;22.27;5.47;;;;;;;-143.10;100.00;51071.38;5003432;28;20046;-69
2022/06/30 12:11:02;;;;;;;17.67;6.25;;;;;;;-143.10;100.00;51034.19;5004710;28;20071;-70
2022/06/30 12:14:04;;;;;;;15.67;5.17;;;;;;;-143.10;100.00;51034.19;5004005;28;20174;-70
2022/06/30 12:17:13;;;;;;;12.60;4.60;;;;;;;-143.10;100.00;51057.66;5004756;28;20405;-70
2022/06/30 12:20:19;;;;;;;18.00;5.88;;;;;;;-143.10;100.00;51040.03;5003967;28;20050;-70
2022/06/30 12:23:29;;;;;;;16.85;5.40;;;;;;;-143.10;100.00;51100.75;4989366;28;20057;-70
2022/06/30 12:26:38;;;;;;;12.48;5.38;;;;;;;-143.10;100.00;51042.00;5003318;28;20105;-70
2022/06/30 12:29:40;;;;;;;14.18;5.03;;;;;;;-143.10;100.00;51043.97;5019392;28;20143;-70
2022/06/30 12:33:04;;;;;;;9.52;6.03;;;;;;;-143.10;100.00;51034.19;5023267;28;20057;-71
2022/06/30 12:36:05;;;;;;;;;;;;;;;-143.10;100.00;51063.53;5025530;28;20398;-70
2022/06/30 12:39:19;;;;;;;12.88;6.32;;;;;;;-143.10;100.00;51067.47;5025636;28;19986;-70
2022/06/30 12:42:21;;;;;;;21.95;6.50;;;;;;;-143.10;100.00;51053.75;5026453;28;20053;-71
2022/06/30 12:45:58;;;;;;;10.63;6.43;;;;;;;-143.10;100.00;51073.34;5020026;28;20053;-71
2022/06/30 12:49:22;;;;;;;16.95;5.68;;;;;;;-143.10;100.00;51092.91;5023737;28;20058;-71
2022/06/30 12:52:31;;;;;;;10.18;5.35;;;;;;;-143.10;100.00;51073.34;5023930;28;20127;-70
2022/06/30 12:56:00;;;;;;;10.18;5.57;;;;;;;-143.10;100.00;51061.59;5028569;28;20105;-70
2022/06/30 12:59:23;;;;;;;12.40;4.88;;;;;;;-143.10;100.00;51057.66;5032128;28;20049;-70
2022/06/30 13:02:39;;;;;;;11.98;4.30;;;;;;;-143.10;100.00;51057.66;5002711;28;20368;-69
2022/06/30 13:05:41;;;;;;;7.50;4.30;;;;;;;-143.10;100.00;51104.66;5022079;28;20052;-70
2022/06/30 13:08:50;;;;;;;10.27;4.50;;;;;;;-143.10;100.00;51104.66;5016614;28;20084;-70
2022/06/30 13:11:59;;;;;;;14.10;4.90;;;;;;;-143.10;100.00;51077.25;5026605;28;20088;-70
2022/06/30 13:15:08;;;;;;;7.97;4.53;;;;;;;-143.10;100.00;51089.00;5027705;28;20472;-67
2022/06/30 13:18:18;;;;;;;10.70;4.10;;;;;;;-143.10;100.00;51043.97;5032368;28;20121;-66
2022/06/30 13:21:29;;;;;;;12.65;4.10;;;;;;;-143.10;100.00;51038.09;5020205;28;20050;-67
2022/06/30 13:24:40;;;;;;;12.93;4.43;;;;;;;-143.10;100.00;51065.50;5020867;28;20159;-69
2022/06/30 13:27:42;;;;;;;10.93;3.83;;;;;;;-143.10;100.00;51053.75;5026157;28;20049;-68
2022/06/30 13:30:51;;;;;;;10.10;3.85;;;;;;;-143.10;100.00;51053.75;5026999;28;20091;-67
2022/06/30 13:33:54;;;;;;;11.40;4.28;;;;;;;-143.10;100.00;51096.81;5017586;28;20046;-68
2022/06/30 13:37:03;;;;;;;10.90;4.13;;;;;;;-143.10;100.00;51063.53;5022764;28;20125;-68
2022/06/30 13:40:12;;;;;;;10.95;4.00;;;;;;;-143.10;100.00;51053.75;5026288;28;20104;-68
2022/06/30 13:43:14;;;;;;;15.40;3.70;;;;;;;-143.10;100.00;51045.91;5022222;28;20071;-67
2022/06/30 13:46:24;;;;;;;14.93;4.57;;;;;;;-143.10;100.00;51079.19;5025531;28;20045;-67
2022/06/30 13:49:27;;;;;;;16.55;4.28;;;;;;;-143.10;100.00;51063.53;5005498;28;20060;-69
2022/06/30 13:52:36;;;;;;;13.13;4.55;;;;;;;-143.10;100.00;51081.16;5006309;28;20073;-67
2022/06/30 13:55:52;;;;;;;12.73;4.00;;;;;;;-143.10;100.00;51081.16;5007510;28;20123;-67
2022/06/30 13:58:41;;;;;;;16.00;4.20;;;;;;;-143.10;100.00;51090.94;5028361;28;20767;-69
2022/06/30 14:01:23;;;;;;;15.63;4.65;;;;;;;-143.10;100.00;51043.97;5026971;28;20065;-69
2022/06/30 14:04:16;;;;;;;15.40;5.13;;;;;;;-143.10;100.00;51077.25;5010440;28;20480;-72
2022/06/30 14:07:05;;;;;;;15.68;4.70;;;;;;;-143.10;100.00;51075.28;5032863;28;20051;-68
2022/06/30 14:09:48;;;;;;;19.10;5.13;;;;;;;-143.10;100.00;51087.03;5011837;28;20060;-68
2022/06/30 14:12:38;;;;;;;16.42;4.72;;;;;;;-143.10;100.00;51085.06;5004747;28;20129;-66
2022/06/30 14:15:27;;;;;;;14.68;5.40;;;;;;;-143.10;100.00;51071.38;5024271;28;20086;-70
2022/06/30 14:18:11;;;;;;;14.85;5.20;;;;;;;-143.10;100.00;51030.25;5012774;28;20469;-70